Chrisanthi — SX7108 — position and weather

sailwx.info

Track history (hours):
 
Tides and Currents Weather Stations Pressure Air Temp Water Temp Dewpoint Dewpoint Depression Visibility Wind Speed Wind Dir Waves Ship Positions

Chrisanthi

Last reported at 2017-May-22 14:56 UTC. Time now 2017-May-25 03:07 UTC.
Position N 37°03' E 025°03'.

Length 56 m; draft 3.9 m.

Type: Ship (hazmat cat A). MMSI: 237009100.

Date/timePositionNaut miles runAvg speedWind from/ knotsBaromVisibWave heightAir tempDewpointWater temp
2017-May-22 14:56N 37°03' E 025°03'410.2
2017-May-22 14:30N 37°05' E 025°07'1 0.8
2017-May-22 12:59N 37°05' E 025°09'0 0.1
2017-May-22 10:27N 37°06' E 025°09'0 0.0
2017-May-22 09:57N 37°06' E 025°09'0 0.0
2017-May-22 09:29N 37°06' E 025°09'0 0.0
2017-May-22 09:00N 37°06' E 025°09'0 0.0
2017-May-22 08:30N 37°06' E 025°09'0 0.0
2017-May-22 08:00N 37°06' E 025°09'0 0.0
2017-May-22 07:30N 37°06' E 025°09'0 0.0
2017-May-22 07:00N 37°06' E 025°09'0 0.2
2017-May-22 04:58N 37°05' E 025°09'4 6.4
2017-May-22 04:19N 37°09' E 025°12'3 9.7
2017-May-22 04:00N 37°10' E 025°15'4 9.0
2017-May-22 03:30N 37°09' E 025°20'3 6.0
2017-May-22 03:00N 37°06' E 025°22'0 0.0
2017-May-22 02:30N 37°06' E 025°22'0 0.0
2017-May-22 02:00N 37°06' E 025°22'0 0.0
2017-May-22 01:30N 37°06' E 025°22'0 0.0
2017-May-22 01:00N 37°06' E 025°22'0 0.0
2017-May-22 00:30N 37°06' E 025°22'0 0.0
2017-May-22 00:00N 37°06' E 025°22'0 0.0
2017-May-21 23:30N 37°06' E 025°22'0 0.0
2017-May-21 23:00N 37°06' E 025°22'0 0.0
2017-May-21 22:30N 37°06' E 025°22'0 0.0
2017-May-21 22:00N 37°06' E 025°22'0 0.0
2017-May-21 21:30N 37°06' E 025°22'0 0.8
2017-May-21 21:00N 37°06' E 025°22'0 0.8
2017-May-21 20:30N 37°06' E 025°22'0 0.0
2017-May-21 20:00N 37°06' E 025°22'0 0.0
2017-May-21 19:30N 37°06' E 025°22'0 0.0
2017-May-21 19:00N 37°06' E 025°22'0 0.0
2017-May-21 18:30N 37°06' E 025°22'0 0.7
2017-May-21 18:00N 37°06' E 025°22'4 8.1
2017-May-21 17:30N 37°02' E 025°20'78 3.0
2017-May-20 15:48N 37°27' E 023°47'310.2
2017-May-20 15:30N 37°29' E 023°44'510.2
2017-May-20 15:00N 37°32' E 023°39'510.1
2017-May-20 14:30N 37°35' E 023°34'10 9.9
2017-May-20 13:30N 37°39' E 023°22'5 9.4
2017-May-20 13:00N 37°42' E 023°17'510.0
2017-May-20 12:30N 37°46' E 023°14'5 9.7
2017-May-20 11:58N 37°50' E 023°10'4 9.6
2017-May-20 11:30N 37°54' E 023°07'2 2.8
2017-May-20 10:54N 37°55' E 023°05'0 0.0
2017-May-20 10:16N 37°55' E 023°05'0 0.0
2017-May-20 10:00N 37°55' E 023°05'0 0.0
2017-May-20 09:29N 37°55' E 023°05'0 0.0
2017-May-20 08:58N 37°55' E 023°05'0 0.0
2017-May-20 08:30N 37°55' E 023°05'0 0.0
2017-May-20 08:00N 37°55' E 023°05'0 0.0
2017-May-20 07:30N 37°55' E 023°05'0 0.0
2017-May-20 06:57N 37°55' E 023°05'0 0.0
2017-May-20 06:30N 37°55' E 023°05'0 0.0
2017-May-20 06:00N 37°55' E 023°05'0 0.0
2017-May-20 05:30N 37°55' E 023°05'0 0.0
2017-May-20 04:58N 37°55' E 023°05'0 0.0
2017-May-20 04:30N 37°55' E 023°05'0 0.0
2017-May-20 04:00N 37°55' E 023°05'0 0.0
2017-May-20 03:02N 37°55' E 023°05'0 0.0
2017-May-20 02:53N 37°55' E 023°05'0 0.0
2017-May-20 02:29N 37°55' E 023°05'0 0.0
2017-May-20 01:58N 37°55' E 023°05'0 0.0
2017-May-20 00:27N 37°55' E 023°05'0 0.0
2017-May-19 23:09N 37°55' E 023°05'0 0.0
2017-May-19 22:58N 37°55' E 023°05'0 0.0
2017-May-19 22:29N 37°55' E 023°05'0 0.0
2017-May-19 20:40N 37°55' E 023°05'12 0.5
2017-May-18 21:25N 37°46' E 023°15'410.0
2017-May-18 21:00N 37°42' E 023°17'4 8.5
2017-May-18 20:31N 37°40' E 023°21'510.0
2017-May-18 19:59N 37°38' E 023°28'510.0
2017-May-18 19:29N 37°36' E 023°33'  
2017-May-12 20:30N 36°59' E 025°19'5 9.5
2017-May-12 20:01N 37°04' E 025°18'4 8.1
2017-May-12 19:30N 37°06' E 025°22'0 0.1
2017-May-12 19:01N 37°06' E 025°22'0 0.0
2017-May-12 18:31N 37°06' E 025°22'0 0.0
2017-May-12 18:00N 37°06' E 025°22'0 0.0
2017-May-12 17:30N 37°06' E 025°22'1 2.4
2017-May-12 17:01N 37°07' E 025°21'5 9.8
2017-May-12 16:30N 37°10' E 025°16'  
Track history (hours):
 
Tides and Currents Weather Stations Pressure Air Temp Water Temp Dewpoint Dewpoint Depression Visibility Wind Speed Wind Dir Waves Ship Positions

Chrisanthi

Last reported at 2017-May-22 14:56 UTC. Time now 2017-May-25 03:07 UTC.
Position N 37°03' E 025°03'.

Length 56 m; draft 3.9 m.

Type: Ship (hazmat cat A). MMSI: 237009100.

Date/timePositionNaut miles runAvg speedWind from/ knotsBaromVisibWave heightAir tempDewpointWater temp
2017-May-22 14:56N 37°03' E 025°03'410.2
2017-May-22 14:30N 37°05' E 025°07'1 0.8
2017-May-22 12:59N 37°05' E 025°09'0 0.1
2017-May-22 10:27N 37°06' E 025°09'0 0.0
2017-May-22 09:57N 37°06' E 025°09'0 0.0
2017-May-22 09:29N 37°06' E 025°09'0 0.0
2017-May-22 09:00N 37°06' E 025°09'0 0.0
2017-May-22 08:30N 37°06' E 025°09'0 0.0
2017-May-22 08:00N 37°06' E 025°09'0 0.0
2017-May-22 07:30N 37°06' E 025°09'0 0.0
2017-May-22 07:00N 37°06' E 025°09'0 0.2
2017-May-22 04:58N 37°05' E 025°09'4 6.4
2017-May-22 04:19N 37°09' E 025°12'3 9.7
2017-May-22 04:00N 37°10' E 025°15'4 9.0
2017-May-22 03:30N 37°09' E 025°20'3 6.0
2017-May-22 03:00N 37°06' E 025°22'0 0.0
2017-May-22 02:30N 37°06' E 025°22'0 0.0
2017-May-22 02:00N 37°06' E 025°22'0 0.0
2017-May-22 01:30N 37°06' E 025°22'0 0.0
2017-May-22 01:00N 37°06' E 025°22'0 0.0
2017-May-22 00:30N 37°06' E 025°22'0 0.0
2017-May-22 00:00N 37°06' E 025°22'0 0.0
2017-May-21 23:30N 37°06' E 025°22'0 0.0
2017-May-21 23:00N 37°06' E 025°22'0 0.0
2017-May-21 22:30N 37°06' E 025°22'0 0.0
2017-May-21 22:00N 37°06' E 025°22'0 0.0
2017-May-21 21:30N 37°06' E 025°22'0 0.8
2017-May-21 21:00N 37°06' E 025°22'0 0.8
2017-May-21 20:30N 37°06' E 025°22'0 0.0
2017-May-21 20:00N 37°06' E 025°22'0 0.0
2017-May-21 19:30N 37°06' E 025°22'0 0.0
2017-May-21 19:00N 37°06' E 025°22'0 0.0
2017-May-21 18:30N 37°06' E 025°22'0 0.7
2017-May-21 18:00N 37°06' E 025°22'4 8.1
2017-May-21 17:30N 37°02' E 025°20'78 3.0
2017-May-20 15:48N 37°27' E 023°47'310.2
2017-May-20 15:30N 37°29' E 023°44'510.2
2017-May-20 15:00N 37°32' E 023°39'510.1
2017-May-20 14:30N 37°35' E 023°34'10 9.9
2017-May-20 13:30N 37°39' E 023°22'5 9.4
2017-May-20 13:00N 37°42' E 023°17'510.0
2017-May-20 12:30N 37°46' E 023°14'5 9.7
2017-May-20 11:58N 37°50' E 023°10'4 9.6
2017-May-20 11:30N 37°54' E 023°07'2 2.8
2017-May-20 10:54N 37°55' E 023°05'0 0.0
2017-May-20 10:16N 37°55' E 023°05'0 0.0
2017-May-20 10:00N 37°55' E 023°05'0 0.0
2017-May-20 09:29N 37°55' E 023°05'0 0.0
2017-May-20 08:58N 37°55' E 023°05'0 0.0
2017-May-20 08:30N 37°55' E 023°05'0 0.0
2017-May-20 08:00N 37°55' E 023°05'0 0.0
2017-May-20 07:30N 37°55' E 023°05'0 0.0
2017-May-20 06:57N 37°55' E 023°05'0 0.0
2017-May-20 06:30N 37°55' E 023°05'0 0.0
2017-May-20 06:00N 37°55' E 023°05'0 0.0
2017-May-20 05:30N 37°55' E 023°05'0 0.0
2017-May-20 04:58N 37°55' E 023°05'0 0.0
2017-May-20 04:30N 37°55' E 023°05'0 0.0
2017-May-20 04:00N 37°55' E 023°05'0 0.0
2017-May-20 03:02N 37°55' E 023°05'0 0.0
2017-May-20 02:53N 37°55' E 023°05'0 0.0
2017-May-20 02:29N 37°55' E 023°05'0 0.0
2017-May-20 01:58N 37°55' E 023°05'0 0.0
2017-May-20 00:27N 37°55' E 023°05'0 0.0
2017-May-19 23:09N 37°55' E 023°05'0 0.0
2017-May-19 22:58N 37°55' E 023°05'0 0.0
2017-May-19 22:29N 37°55' E 023°05'0 0.0
2017-May-19 20:40N 37°55' E 023°05'12 0.5
2017-May-18 21:25N 37°46' E 023°15'410.0
2017-May-18 21:00N 37°42' E 023°17'4 8.5
2017-May-18 20:31N 37°40' E 023°21'510.0
2017-May-18 19:59N 37°38' E 023°28'510.0
2017-May-18 19:29N 37°36' E 023°33'  
2017-May-12 20:30N 36°59' E 025°19'5 9.5
2017-May-12 20:01N 37°04' E 025°18'4 8.1
2017-May-12 19:30N 37°06' E 025°22'0 0.1
2017-May-12 19:01N 37°06' E 025°22'0 0.0
2017-May-12 18:31N 37°06' E 025°22'0 0.0
2017-May-12 18:00N 37°06' E 025°22'0 0.0
2017-May-12 17:30N 37°06' E 025°22'1 2.4
2017-May-12 17:01N 37°07' E 025°21'5 9.8
2017-May-12 16:30N 37°10' E 025°16'  

Dump ship's entire track history